sensor_id;sensor_type;location;lat;lon;timestamp;P1;durP1;ratioP1;P2;durP2;ratioP2
78368;SDS011;71113;43.092;-89.268;2023-07-31T00:00:34;4.30;;;1.30;;
78368;SDS011;71113;43.092;-89.268;2023-07-31T00:03:00;5.53;;;1.63;;
78368;SDS011;71113;43.092;-89.268;2023-07-31T00:05:26;3.58;;;1.50;;
78368;SDS011;71113;43.092;-89.268;2023-07-31T00:07:52;5.80;;;1.52;;
78368;SDS011;71113;43.092;-89.268;2023-07-31T00:10:20;3.50;;;1.27;;
78368;SDS011;71113;43.092;-89.268;2023-07-31T00:12:46;3.10;;;1.42;;
78368;SDS011;71113;43.092;-89.268;2023-07-31T00:15:13;4.90;;;1.55;;
78368;SDS011;71113;43.092;-89.268;2023-07-31T00:17:41;4.28;;;1.40;;
78368;SDS011;71113;43.092;-89.268;2023-07-31T00:20:07;4.07;;;1.60;;
78368;SDS011;71113;43.092;-89.268;2023-07-31T00:22:33;6.15;;;1.80;;
78368;SDS011;71113;43.092;-89.268;2023-07-31T00:24:59;9.40;;;1.70;;
78368;SDS011;71113;43.092;-89.268;2023-07-31T00:27:25;3.85;;;1.35;;
78368;SDS011;71113;43.092;-89.268;2023-07-31T00:29:51;3.92;;;1.52;;
78368;SDS011;71113;43.092;-89.268;2023-07-31T00:32:17;4.53;;;1.45;;
78368;SDS011;71113;43.092;-89.268;2023-07-31T00:34:43;4.18;;;1.52;;
78368;SDS011;71113;43.092;-89.268;2023-07-31T00:37:09;3.35;;;1.15;;
78368;SDS011;71113;43.092;-89.268;2023-07-31T00:39:35;2.83;;;1.30;;
78368;SDS011;71113;43.092;-89.268;2023-07-31T00:42:01;2.50;;;0.90;;
78368;SDS011;71113;43.092;-89.268;2023-07-31T00:44:27;5.50;;;1.27;;
78368;SDS011;71113;43.092;-89.268;2023-07-31T00:46:53;5.80;;;1.48;;
78368;SDS011;71113;43.092;-89.268;2023-07-31T00:49:20;2.55;;;0.90;;
78368;SDS011;71113;43.092;-89.268;2023-07-31T00:51:47;4.43;;;1.20;;
78368;SDS011;71113;43.092;-89.268;2023-07-31T00:54:13;7.88;;;1.38;;
78368;SDS011;71113;43.092;-89.268;2023-07-31T00:56:39;6.25;;;1.25;;
78368;SDS011;71113;43.092;-89.268;2023-07-31T00:59:06;3.08;;;1.30;;
78368;SDS011;71113;43.092;-89.268;2023-07-31T01:01:32;15.80;;;6.55;;
78368;SDS011;71113;43.092;-89.268;2023-07-31T01:03:58;15.57;;;8.05;;
78368;SDS011;71113;43.092;-89.268;2023-07-31T01:09:01;8.20;;;4.90;;
78368;SDS011;71113;43.092;-89.268;2023-07-31T01:11:41;8.20;;;4.20;;
78368;SDS011;71113;43.092;-89.268;2023-07-31T01:14:12;8.27;;;3.15;;
78368;SDS011;71113;43.092;-89.268;2023-07-31T01:16:38;6.30;;;3.28;;
78368;SDS011;71113;43.092;-89.268;2023-07-31T01:19:04;5.70;;;2.83;;
78368;SDS011;71113;43.092;-89.268;2023-07-31T01:32:26;4.00;;;2.10;;
78368;SDS011;71113;43.092;-89.268;2023-07-31T01:34:54;24.98;;;14.95;;
78368;SDS011;71113;43.092;-89.268;2023-07-31T01:37:22;14.02;;;8.40;;
78368;SDS011;71113;43.092;-89.268;2023-07-31T01:39:54;18.27;;;11.10;;
78368;SDS011;71113;43.092;-89.268;2023-07-31T01:42:20;12.57;;;8.38;;
78368;SDS011;71113;43.092;-89.268;2023-07-31T01:44:45;12.18;;;7.13;;
78368;SDS011;71113;43.092;-89.268;2023-07-31T01:47:11;9.63;;;6.07;;
78368;SDS011;71113;43.092;-89.268;2023-07-31T01:49:37;8.88;;;4.78;;
78368;SDS011;71113;43.092;-89.268;2023-07-31T01:52:03;6.50;;;3.67;;
78368;SDS011;71113;43.092;-89.268;2023-07-31T01:54:30;10.88;;;3.53;;
78368;SDS011;71113;43.092;-89.268;2023-07-31T01:56:55;5.07;;;3.13;;
78368;SDS011;71113;43.092;-89.268;2023-07-31T01:59:21;5.38;;;2.97;;
78368;SDS011;71113;43.092;-89.268;2023-07-31T02:01:47;4.45;;;2.70;;
78368;SDS011;71113;43.092;-89.268;2023-07-31T02:04:13;4.22;;;2.88;;
78368;SDS011;71113;43.092;-89.268;2023-07-31T02:06:39;5.07;;;2.42;;
78368;SDS011;71113;43.092;-89.268;2023-07-31T02:09:05;6.60;;;2.45;;
78368;SDS011;71113;43.092;-89.268;2023-07-31T02:11:31;4.57;;;2.03;;
78368;SDS011;71113;43.092;-89.268;2023-07-31T02:13:57;4.85;;;2.10;;
78368;SDS011;71113;43.092;-89.268;2023-07-31T02:16:22;3.13;;;1.73;;
78368;SDS011;71113;43.092;-89.268;2023-07-31T02:18:48;3.30;;;1.85;;
78368;SDS011;71113;43.092;-89.268;2023-07-31T02:21:14;4.35;;;2.00;;
78368;SDS011;71113;43.092;-89.268;2023-07-31T02:23:40;2.88;;;1.60;;
78368;SDS011;71113;43.092;-89.268;2023-07-31T02:26:06;6.25;;;2.42;;
78368;SDS011;71113;43.092;-89.268;2023-07-31T02:28:32;2.95;;;1.70;;
78368;SDS011;71113;43.092;-89.268;2023-07-31T02:30:58;3.08;;;1.58;;
78368;SDS011;71113;43.092;-89.268;2023-07-31T02:33:24;3.00;;;1.40;;
78368;SDS011;71113;43.092;-89.268;2023-07-31T02:35:50;2.33;;;1.30;;
78368;SDS011;71113;43.092;-89.268;2023-07-31T02:38:17;3.30;;;1.40;;
78368;SDS011;71113;43.092;-89.268;2023-07-31T02:40:43;2.90;;;1.33;;
78368;SDS011;71113;43.092;-89.268;2023-07-31T02:43:09;2.40;;;1.30;;
78368;SDS011;71113;43.092;-89.268;2023-07-31T02:45:35;3.45;;;1.35;;
78368;SDS011;71113;43.092;-89.268;2023-07-31T02:48:01;2.28;;;1.40;;
78368;SDS011;71113;43.092;-89.268;2023-07-31T02:50:27;4.00;;;1.30;;
78368;SDS011;71113;43.092;-89.268;2023-07-31T02:52:53;4.63;;;1.60;;
78368;SDS011;71113;43.092;-89.268;2023-07-31T02:55:19;4.45;;;1.80;;
78368;SDS011;71113;43.092;-89.268;2023-07-31T02:57:45;4.75;;;1.60;;
78368;SDS011;71113;43.092;-89.268;2023-07-31T03:00:12;3.58;;;1.77;;
78368;SDS011;71113;43.092;-89.268;2023-07-31T03:02:38;3.10;;;1.70;;
78368;SDS011;71113;43.092;-89.268;2023-07-31T03:05:04;4.85;;;1.90;;
78368;SDS011;71113;43.092;-89.268;2023-07-31T03:07:30;2.92;;;1.50;;
78368;SDS011;71113;43.092;-89.268;2023-07-31T03:09:56;3.40;;;1.60;;
78368;SDS011;71113;43.092;-89.268;2023-07-31T03:12:22;3.05;;;1.50;;
78368;SDS011;71113;43.092;-89.268;2023-07-31T03:14:48;3.80;;;1.83;;
78368;SDS011;71113;43.092;-89.268;2023-07-31T03:17:14;3.75;;;1.90;;
78368;SDS011;71113;43.092;-89.268;2023-07-31T03:19:40;2.65;;;1.50;;
78368;SDS011;71113;43.092;-89.268;2023-07-31T03:22:06;3.45;;;1.67;;
78368;SDS011;71113;43.092;-89.268;2023-07-31T03:24:32;3.70;;;1.60;;
78368;SDS011;71113;43.092;-89.268;2023-07-31T03:26:58;2.92;;;1.70;;
78368;SDS011;71113;43.092;-89.268;2023-07-31T03:29:24;3.30;;;1.52;;
78368;SDS011;71113;43.092;-89.268;2023-07-31T03:31:50;4.13;;;1.42;;
78368;SDS011;71113;43.092;-89.268;2023-07-31T03:34:16;3.38;;;1.45;;
78368;SDS011;71113;43.092;-89.268;2023-07-31T03:36:42;3.13;;;1.80;;
78368;SDS011;71113;43.092;-89.268;2023-07-31T03:39:09;2.78;;;1.60;;
78368;SDS011;71113;43.092;-89.268;2023-07-31T03:41:35;2.55;;;1.50;;
78368;SDS011;71113;43.092;-89.268;2023-07-31T03:44:01;2.25;;;1.38;;
78368;SDS011;71113;43.092;-89.268;2023-07-31T03:46:27;2.03;;;1.20;;
78368;SDS011;71113;43.092;-89.268;2023-07-31T03:48:53;2.35;;;1.30;;
78368;SDS011;71113;43.092;-89.268;2023-07-31T03:51:19;2.25;;;1.17;;
78368;SDS011;71113;43.092;-89.268;2023-07-31T03:53:45;6.07;;;1.30;;
78368;SDS011;71113;43.092;-89.268;2023-07-31T03:56:11;2.13;;;1.30;;
78368;SDS011;71113;43.092;-89.268;2023-07-31T03:58:36;2.28;;;1.15;;
78368;SDS011;71113;43.092;-89.268;2023-07-31T04:01:03;1.52;;;1.00;;
78368;SDS011;71113;43.092;-89.268;2023-07-31T04:03:29;2.20;;;1.00;;
78368;SDS011;71113;43.092;-89.268;2023-07-31T04:05:55;1.63;;;0.93;;
78368;SDS011;71113;43.092;-89.268;2023-07-31T04:08:22;1.55;;;0.88;;
78368;SDS011;71113;43.092;-89.268;2023-07-31T04:10:48;1.70;;;1.10;;
78368;SDS011;71113;43.092;-89.268;2023-07-31T04:13:14;1.80;;;1.05;;
78368;SDS011;71113;43.092;-89.268;2023-07-31T04:15:40;1.45;;;0.82;;
78368;SDS011;71113;43.092;-89.268;2023-07-31T04:18:07;1.40;;;0.88;;
78368;SDS011;71113;43.092;-89.268;2023-07-31T04:20:34;1.25;;;0.73;;
78368;SDS011;71113;43.092;-89.268;2023-07-31T04:23:00;1.77;;;0.90;;
78368;SDS011;71113;43.092;-89.268;2023-07-31T04:25:25;2.20;;;0.85;;
78368;SDS011;71113;43.092;-89.268;2023-07-31T04:27:51;1.30;;;0.85;;
78368;SDS011;71113;43.092;-89.268;2023-07-31T04:30:17;2.15;;;1.08;;
78368;SDS011;71113;43.092;-89.268;2023-07-31T04:32:43;1.17;;;0.80;;
78368;SDS011;71113;43.092;-89.268;2023-07-31T04:35:10;1.05;;;0.68;;
78368;SDS011;71113;43.092;-89.268;2023-07-31T04:37:36;0.90;;;0.60;;
78368;SDS011;71113;43.092;-89.268;2023-07-31T04:40:01;1.13;;;0.80;;
78368;SDS011;71113;43.092;-89.268;2023-07-31T04:42:28;0.70;;;0.47;;
78368;SDS011;71113;43.092;-89.268;2023-07-31T04:44:54;1.50;;;1.00;;
78368;SDS011;71113;43.092;-89.268;2023-07-31T04:47:20;1.10;;;0.75;;
78368;SDS011;71113;43.092;-89.268;2023-07-31T04:49:45;1.15;;;0.63;;
78368;SDS011;71113;43.092;-89.268;2023-07-31T04:52:11;0.77;;;0.60;;
78368;SDS011;71113;43.092;-89.268;2023-07-31T04:57:22;0.95;;;0.60;;
78368;SDS011;71113;43.092;-89.268;2023-07-31T04:59:48;0.80;;;0.60;;
78368;SDS011;71113;43.092;-89.268;2023-07-31T05:02:14;0.73;;;0.43;;
78368;SDS011;71113;43.092;-89.268;2023-07-31T05:04:39;1.00;;;0.70;;
78368;SDS011;71113;43.092;-89.268;2023-07-31T05:07:05;0.75;;;0.50;;
78368;SDS011;71113;43.092;-89.268;2023-07-31T05:09:31;0.45;;;0.45;;
78368;SDS011;71113;43.092;-89.268;2023-07-31T05:11:57;0.82;;;0.70;;
78368;SDS011;71113;43.092;-89.268;2023-07-31T05:14:23;0.80;;;0.52;;
78368;SDS011;71113;43.092;-89.268;2023-07-31T05:16:49;1.20;;;0.50;;
78368;SDS011;71113;43.092;-89.268;2023-07-31T05:19:15;1.00;;;0.65;;
78368;SDS011;71113;43.092;-89.268;2023-07-31T05:21:41;0.73;;;0.50;;
78368;SDS011;71113;43.092;-89.268;2023-07-31T05:24:07;1.00;;;0.80;;
78368;SDS011;71113;43.092;-89.268;2023-07-31T05:26:32;0.82;;;0.50;;
78368;SDS011;71113;43.092;-89.268;2023-07-31T05:28:58;0.90;;;0.57;;
78368;SDS011;71113;43.092;-89.268;2023-07-31T05:31:24;0.50;;;0.50;;
78368;SDS011;71113;43.092;-89.268;2023-07-31T05:33:50;0.90;;;0.70;;
78368;SDS011;71113;43.092;-89.268;2023-07-31T05:36:16;0.73;;;0.60;;
78368;SDS011;71113;43.092;-89.268;2023-07-31T05:38:43;0.50;;;0.50;;
78368;SDS011;71113;43.092;-89.268;2023-07-31T05:41:12;0.65;;;0.50;;
78368;SDS011;71113;43.092;-89.268;2023-07-31T05:43:38;0.38;;;0.38;;
78368;SDS011;71113;43.092;-89.268;2023-07-31T05:46:04;0.63;;;0.52;;
78368;SDS011;71113;43.092;-89.268;2023-07-31T05:48:32;0.73;;;0.57;;
78368;SDS011;71113;43.092;-89.268;2023-07-31T05:50:59;0.30;;;0.30;;
78368;SDS011;71113;43.092;-89.268;2023-07-31T05:53:25;0.45;;;0.40;;
78368;SDS011;71113;43.092;-89.268;2023-07-31T05:55:51;0.80;;;0.80;;
78368;SDS011;71113;43.092;-89.268;2023-07-31T05:58:17;0.57;;;0.57;;
78368;SDS011;71113;43.092;-89.268;2023-07-31T06:00:43;0.70;;;0.52;;
78368;SDS011;71113;43.092;-89.268;2023-07-31T06:03:09;0.60;;;0.50;;
78368;SDS011;71113;43.092;-89.268;2023-07-31T06:05:35;0.68;;;0.45;;
78368;SDS011;71113;43.092;-89.268;2023-07-31T06:08:01;0.52;;;0.45;;
78368;SDS011;71113;43.092;-89.268;2023-07-31T06:10:27;0.50;;;0.50;;
78368;SDS011;71113;43.092;-89.268;2023-07-31T06:12:53;0.40;;;0.40;;
78368;SDS011;71113;43.092;-89.268;2023-07-31T06:15:19;0.40;;;0.30;;
78368;SDS011;71113;43.092;-89.268;2023-07-31T06:17:45;0.40;;;0.40;;
78368;SDS011;71113;43.092;-89.268;2023-07-31T06:20:11;1.08;;;0.90;;
78368;SDS011;71113;43.092;-89.268;2023-07-31T06:22:37;0.47;;;0.47;;
78368;SDS011;71113;43.092;-89.268;2023-07-31T06:25:03;0.57;;;0.50;;
78368;SDS011;71113;43.092;-89.268;2023-07-31T06:27:29;0.57;;;0.50;;
78368;SDS011;71113;43.092;-89.268;2023-07-31T06:29:55;0.40;;;0.40;;
78368;SDS011;71113;43.092;-89.268;2023-07-31T06:32:21;0.55;;;0.40;;
78368;SDS011;71113;43.092;-89.268;2023-07-31T06:34:47;0.30;;;0.30;;
78368;SDS011;71113;43.092;-89.268;2023-07-31T06:37:13;0.77;;;0.60;;
78368;SDS011;71113;43.092;-89.268;2023-07-31T06:39:39;0.82;;;0.82;;
78368;SDS011;71113;43.092;-89.268;2023-07-31T06:42:05;0.55;;;0.55;;
78368;SDS011;71113;43.092;-89.268;2023-07-31T06:44:31;0.30;;;0.30;;
78368;SDS011;71113;43.092;-89.268;2023-07-31T06:46:56;0.90;;;0.90;;
78368;SDS011;71113;43.092;-89.268;2023-07-31T06:49:22;0.80;;;0.60;;
78368;SDS011;71113;43.092;-89.268;2023-07-31T06:51:48;0.47;;;0.30;;
78368;SDS011;71113;43.092;-89.268;2023-07-31T06:54:28;0.52;;;0.40;;
78368;SDS011;71113;43.092;-89.268;2023-07-31T06:56:54;0.40;;;0.38;;
78368;SDS011;71113;43.092;-89.268;2023-07-31T06:59:20;0.40;;;0.40;;
78368;SDS011;71113;43.092;-89.268;2023-07-31T07:01:46;0.70;;;0.52;;
78368;SDS011;71113;43.092;-89.268;2023-07-31T07:04:13;0.30;;;0.30;;
78368;SDS011;71113;43.092;-89.268;2023-07-31T07:06:39;0.40;;;0.40;;
78368;SDS011;71113;43.092;-89.268;2023-07-31T07:09:05;0.57;;;0.50;;
78368;SDS011;71113;43.092;-89.268;2023-07-31T07:11:31;1.00;;;0.60;;
78368;SDS011;71113;43.092;-89.268;2023-07-31T07:13:57;0.55;;;0.50;;
78368;SDS011;71113;43.092;-89.268;2023-07-31T07:16:22;0.30;;;0.30;;
78368;SDS011;71113;43.092;-89.268;2023-07-31T07:18:48;0.40;;;0.40;;
78368;SDS011;71113;43.092;-89.268;2023-07-31T07:21:14;0.55;;;0.50;;
78368;SDS011;71113;43.092;-89.268;2023-07-31T07:23:41;0.40;;;0.40;;
78368;SDS011;71113;43.092;-89.268;2023-07-31T07:26:08;0.73;;;0.50;;
78368;SDS011;71113;43.092;-89.268;2023-07-31T07:28:33;0.30;;;0.30;;
78368;SDS011;71113;43.092;-89.268;2023-07-31T07:30:59;0.77;;;0.60;;
78368;SDS011;71113;43.092;-89.268;2023-07-31T07:33:26;0.32;;;0.32;;
78368;SDS011;71113;43.092;-89.268;2023-07-31T07:35:52;0.45;;;0.40;;
78368;SDS011;71113;43.092;-89.268;2023-07-31T07:38:18;0.60;;;0.50;;
78368;SDS011;71113;43.092;-89.268;2023-07-31T07:40:44;0.50;;;0.50;;
78368;SDS011;71113;43.092;-89.268;2023-07-31T07:43:12;0.77;;;0.60;;
78368;SDS011;71113;43.092;-89.268;2023-07-31T07:45:38;0.47;;;0.47;;
78368;SDS011;71113;43.092;-89.268;2023-07-31T07:48:04;0.40;;;0.40;;
78368;SDS011;71113;43.092;-89.268;2023-07-31T07:50:30;0.30;;;0.30;;
78368;SDS011;71113;43.092;-89.268;2023-07-31T07:52:56;0.63;;;0.50;;
78368;SDS011;71113;43.092;-89.268;2023-07-31T07:55:22;0.82;;;0.82;;
78368;SDS011;71113;43.092;-89.268;2023-07-31T07:57:48;0.52;;;0.32;;
78368;SDS011;71113;43.092;-89.268;2023-07-31T08:03:36;1.08;;;0.45;;
78368;SDS011;71113;43.092;-89.268;2023-07-31T08:06:02;0.55;;;0.50;;
78368;SDS011;71113;43.092;-89.268;2023-07-31T08:08:28;0.40;;;0.38;;
78368;SDS011;71113;43.092;-89.268;2023-07-31T08:10:54;0.47;;;0.40;;
78368;SDS011;71113;43.092;-89.268;2023-07-31T08:13:20;0.63;;;0.40;;
78368;SDS011;71113;43.092;-89.268;2023-07-31T08:15:46;0.43;;;0.43;;
78368;SDS011;71113;43.092;-89.268;2023-07-31T08:18:12;0.40;;;0.40;;
78368;SDS011;71113;43.092;-89.268;2023-07-31T08:20:38;1.65;;;0.50;;
78368;SDS011;71113;43.092;-89.268;2023-07-31T08:23:04;0.85;;;0.40;;
78368;SDS011;71113;43.092;-89.268;2023-07-31T08:25:30;1.02;;;0.52;;
78368;SDS011;71113;43.092;-89.268;2023-07-31T08:28:00;0.22;;;0.20;;
78368;SDS011;71113;43.092;-89.268;2023-07-31T08:30:26;0.40;;;0.38;;
78368;SDS011;71113;43.092;-89.268;2023-07-31T08:32:52;0.20;;;0.20;;
78368;SDS011;71113;43.092;-89.268;2023-07-31T08:35:18;0.70;;;0.50;;
78368;SDS011;71113;43.092;-89.268;2023-07-31T08:37:44;0.60;;;0.50;;
78368;SDS011;71113;43.092;-89.268;2023-07-31T08:40:10;0.55;;;0.50;;
78368;SDS011;71113;43.092;-89.268;2023-07-31T08:42:47;0.40;;;0.40;;
78368;SDS011;71113;43.092;-89.268;2023-07-31T08:45:15;0.40;;;0.40;;
78368;SDS011;71113;43.092;-89.268;2023-07-31T08:47:44;0.55;;;0.35;;
78368;SDS011;71113;43.092;-89.268;2023-07-31T08:50:14;1.75;;;0.40;;
78368;SDS011;71113;43.092;-89.268;2023-07-31T08:52:42;0.20;;;0.20;;
78368;SDS011;71113;43.092;-89.268;2023-07-31T08:55:10;0.50;;;0.50;;
78368;SDS011;71113;43.092;-89.268;2023-07-31T08:57:36;0.30;;;0.30;;
78368;SDS011;71113;43.092;-89.268;2023-07-31T09:00:06;0.32;;;0.32;;
78368;SDS011;71113;43.092;-89.268;2023-07-31T09:02:46;0.50;;;0.40;;
78368;SDS011;71113;43.092;-89.268;2023-07-31T09:05:19;0.40;;;0.40;;
78368;SDS011;71113;43.092;-89.268;2023-07-31T09:07:47;0.20;;;0.20;;
78368;SDS011;71113;43.092;-89.268;2023-07-31T09:10:15;0.47;;;0.40;;
78368;SDS011;71113;43.092;-89.268;2023-07-31T09:12:41;0.40;;;0.40;;
78368;SDS011;71113;43.092;-89.268;2023-07-31T09:15:08;1.15;;;0.43;;
78368;SDS011;71113;43.092;-89.268;2023-07-31T09:17:35;0.63;;;0.47;;
78368;SDS011;71113;43.092;-89.268;2023-07-31T09:25:37;0.47;;;0.43;;
78368;SDS011;71113;43.092;-89.268;2023-07-31T09:28:08;0.75;;;0.43;;
78368;SDS011;71113;43.092;-89.268;2023-07-31T09:30:47;0.30;;;0.30;;
78368;SDS011;71113;43.092;-89.268;2023-07-31T09:33:15;0.30;;;0.30;;
78368;SDS011;71113;43.092;-89.268;2023-07-31T09:35:54;0.70;;;0.60;;
78368;SDS011;71113;43.092;-89.268;2023-07-31T09:38:20;0.30;;;0.30;;
78368;SDS011;71113;43.092;-89.268;2023-07-31T09:40:47;0.30;;;0.30;;
78368;SDS011;71113;43.092;-89.268;2023-07-31T09:43:17;0.75;;;0.52;;
78368;SDS011;71113;43.092;-89.268;2023-07-31T09:45:47;0.40;;;0.40;;
78368;SDS011;71113;43.092;-89.268;2023-07-31T09:48:19;0.40;;;0.40;;
78368;SDS011;71113;43.092;-89.268;2023-07-31T09:50:45;0.30;;;0.20;;
78368;SDS011;71113;43.092;-89.268;2023-07-31T09:53:12;0.30;;;0.30;;
78368;SDS011;71113;43.092;-89.268;2023-07-31T09:55:39;0.35;;;0.35;;
78368;SDS011;71113;43.092;-89.268;2023-07-31T09:58:07;0.50;;;0.40;;
78368;SDS011;71113;43.092;-89.268;2023-07-31T10:00:34;0.55;;;0.50;;
78368;SDS011;71113;43.092;-89.268;2023-07-31T10:03:01;0.30;;;0.22;;
78368;SDS011;71113;43.092;-89.268;2023-07-31T10:05:49;0.30;;;0.30;;
78368;SDS011;71113;43.092;-89.268;2023-07-31T10:08:16;0.60;;;0.43;;
78368;SDS011;71113;43.092;-89.268;2023-07-31T10:10:45;0.20;;;0.20;;
78368;SDS011;71113;43.092;-89.268;2023-07-31T10:13:14;0.40;;;0.40;;
78368;SDS011;71113;43.092;-89.268;2023-07-31T10:15:41;0.50;;;0.40;;
78368;SDS011;71113;43.092;-89.268;2023-07-31T10:18:08;0.55;;;0.50;;
78368;SDS011;71113;43.092;-89.268;2023-07-31T10:20:35;0.30;;;0.30;;
78368;SDS011;71113;43.092;-89.268;2023-07-31T10:23:02;0.40;;;0.40;;
78368;SDS011;71113;43.092;-89.268;2023-07-31T10:25:28;0.85;;;0.80;;
78368;SDS011;71113;43.092;-89.268;2023-07-31T10:27:55;0.30;;;0.30;;
78368;SDS011;71113;43.092;-89.268;2023-07-31T10:30:26;0.55;;;0.40;;
78368;SDS011;71113;43.092;-89.268;2023-07-31T10:32:54;0.70;;;0.60;;
78368;SDS011;71113;43.092;-89.268;2023-07-31T10:35:21;0.70;;;0.60;;
78368;SDS011;71113;43.092;-89.268;2023-07-31T10:37:48;0.45;;;0.45;;
78368;SDS011;71113;43.092;-89.268;2023-07-31T10:40:17;0.40;;;0.40;;
78368;SDS011;71113;43.092;-89.268;2023-07-31T10:42:55;0.38;;;0.38;;
78368;SDS011;71113;43.092;-89.268;2023-07-31T10:45:34;0.50;;;0.50;;
78368;SDS011;71113;43.092;-89.268;2023-07-31T10:48:03;0.40;;;0.35;;
78368;SDS011;71113;43.092;-89.268;2023-07-31T10:50:33;0.50;;;0.50;;
78368;SDS011;71113;43.092;-89.268;2023-07-31T10:53:03;0.40;;;0.40;;
78368;SDS011;71113;43.092;-89.268;2023-07-31T10:55:30;0.80;;;0.80;;
78368;SDS011;71113;43.092;-89.268;2023-07-31T11:00:43;0.63;;;0.50;;
78368;SDS011;71113;43.092;-89.268;2023-07-31T11:03:10;0.50;;;0.50;;
78368;SDS011;71113;43.092;-89.268;2023-07-31T11:05:49;0.28;;;0.28;;
78368;SDS011;71113;43.092;-89.268;2023-07-31T11:13:27;0.38;;;0.30;;
78368;SDS011;71113;43.092;-89.268;2023-07-31T11:15:56;0.75;;;0.63;;
78368;SDS011;71113;43.092;-89.268;2023-07-31T11:18:22;0.30;;;0.30;;
78368;SDS011;71113;43.092;-89.268;2023-07-31T11:20:48;0.77;;;0.70;;
78368;SDS011;71113;43.092;-89.268;2023-07-31T11:23:15;0.52;;;0.40;;
78368;SDS011;71113;43.092;-89.268;2023-07-31T11:25:42;0.60;;;0.50;;
78368;SDS011;71113;43.092;-89.268;2023-07-31T11:28:09;0.52;;;0.50;;
78368;SDS011;71113;43.092;-89.268;2023-07-31T11:30:37;0.47;;;0.47;;
78368;SDS011;71113;43.092;-89.268;2023-07-31T11:33:04;1.48;;;0.50;;
78368;SDS011;71113;43.092;-89.268;2023-07-31T11:35:35;0.45;;;0.32;;
78368;SDS011;71113;43.092;-89.268;2023-07-31T11:38:06;0.68;;;0.50;;
78368;SDS011;71113;43.092;-89.268;2023-07-31T11:40:40;0.45;;;0.30;;
78368;SDS011;71113;43.092;-89.268;2023-07-31T11:43:07;0.50;;;0.50;;
78368;SDS011;71113;43.092;-89.268;2023-07-31T11:45:33;0.57;;;0.30;;
78368;SDS011;71113;43.092;-89.268;2023-07-31T11:48:00;0.68;;;0.50;;
78368;SDS011;71113;43.092;-89.268;2023-07-31T11:50:26;0.52;;;0.43;;
78368;SDS011;71113;43.092;-89.268;2023-07-31T11:52:55;0.65;;;0.50;;
78368;SDS011;71113;43.092;-89.268;2023-07-31T11:55:24;0.38;;;0.38;;
78368;SDS011;71113;43.092;-89.268;2023-07-31T11:57:51;0.68;;;0.40;;
78368;SDS011;71113;43.092;-89.268;2023-07-31T12:00:19;0.65;;;0.40;;
78368;SDS011;71113;43.092;-89.268;2023-07-31T12:02:46;0.77;;;0.52;;
78368;SDS011;71113;43.092;-89.268;2023-07-31T12:05:13;1.55;;;0.40;;
78368;SDS011;71113;43.092;-89.268;2023-07-31T12:07:45;1.33;;;0.43;;
78368;SDS011;71113;43.092;-89.268;2023-07-31T12:10:28;0.20;;;0.20;;
78368;SDS011;71113;43.092;-89.268;2023-07-31T12:13:05;1.98;;;0.50;;
78368;SDS011;71113;43.092;-89.268;2023-07-31T12:15:40;0.40;;;0.40;;
78368;SDS011;71113;43.092;-89.268;2023-07-31T12:18:10;0.88;;;0.50;;
78368;SDS011;71113;43.092;-89.268;2023-07-31T12:20:44;0.60;;;0.50;;
78368;SDS011;71113;43.092;-89.268;2023-07-31T12:23:16;0.88;;;0.40;;
78368;SDS011;71113;43.092;-89.268;2023-07-31T12:25:43;0.65;;;0.52;;
78368;SDS011;71113;43.092;-89.268;2023-07-31T12:28:10;0.75;;;0.75;;
78368;SDS011;71113;43.092;-89.268;2023-07-31T12:30:39;1.17;;;0.40;;
78368;SDS011;71113;43.092;-89.268;2023-07-31T12:33:13;0.57;;;0.40;;
78368;SDS011;71113;43.092;-89.268;2023-07-31T12:35:46;0.20;;;0.20;;
78368;SDS011;71113;43.092;-89.268;2023-07-31T12:38:13;0.63;;;0.40;;
78368;SDS011;71113;43.092;-89.268;2023-07-31T12:40:39;0.80;;;0.35;;
78368;SDS011;71113;43.092;-89.268;2023-07-31T12:43:06;0.43;;;0.43;;
78368;SDS011;71113;43.092;-89.268;2023-07-31T12:45:33;1.33;;;0.55;;
78368;SDS011;71113;43.092;-89.268;2023-07-31T12:48:00;0.38;;;0.38;;
78368;SDS011;71113;43.092;-89.268;2023-07-31T12:50:26;0.52;;;0.43;;
78368;SDS011;71113;43.092;-89.268;2023-07-31T12:52:53;0.32;;;0.32;;
78368;SDS011;71113;43.092;-89.268;2023-07-31T12:55:20;0.50;;;0.40;;
78368;SDS011;71113;43.092;-89.268;2023-07-31T12:57:47;0.57;;;0.28;;
78368;SDS011;71113;43.092;-89.268;2023-07-31T13:00:13;0.30;;;0.30;;
78368;SDS011;71113;43.092;-89.268;2023-07-31T13:02:39;0.40;;;0.35;;
78368;SDS011;71113;43.092;-89.268;2023-07-31T13:05:05;0.88;;;0.47;;
78368;SDS011;71113;43.092;-89.268;2023-07-31T13:07:31;1.35;;;0.60;;
78368;SDS011;71113;43.092;-89.268;2023-07-31T13:09:57;2.83;;;0.50;;
78368;SDS011;71113;43.092;-89.268;2023-07-31T13:12:23;3.25;;;0.60;;
78368;SDS011;71113;43.092;-89.268;2023-07-31T13:14:50;0.85;;;0.85;;
78368;SDS011;71113;43.092;-89.268;2023-07-31T13:17:16;2.05;;;0.65;;
78368;SDS011;71113;43.092;-89.268;2023-07-31T13:19:42;0.32;;;0.30;;
78368;SDS011;71113;43.092;-89.268;2023-07-31T13:22:08;0.70;;;0.50;;
78368;SDS011;71113;43.092;-89.268;2023-07-31T13:24:55;0.30;;;0.30;;
78368;SDS011;71113;43.092;-89.268;2023-07-31T13:27:20;0.43;;;0.43;;
78368;SDS011;71113;43.092;-89.268;2023-07-31T13:29:53;1.52;;;0.95;;
78368;SDS011;71113;43.092;-89.268;2023-07-31T13:32:19;3.47;;;0.60;;
78368;SDS011;71113;43.092;-89.268;2023-07-31T13:34:46;2.20;;;0.40;;
78368;SDS011;71113;43.092;-89.268;2023-07-31T13:37:13;2.33;;;0.50;;
78368;SDS011;71113;43.092;-89.268;2023-07-31T13:39:39;1.55;;;0.40;;
78368;SDS011;71113;43.092;-89.268;2023-07-31T13:42:06;23.83;;;1.30;;
78368;SDS011;71113;43.092;-89.268;2023-07-31T13:44:34;1.55;;;0.55;;
78368;SDS011;71113;43.092;-89.268;2023-07-31T13:47:00;4.10;;;0.70;;
78368;SDS011;71113;43.092;-89.268;2023-07-31T13:49:27;0.30;;;0.30;;
78368;SDS011;71113;43.092;-89.268;2023-07-31T13:51:54;0.75;;;0.50;;
78368;SDS011;71113;43.092;-89.268;2023-07-31T13:54:19;2.58;;;0.98;;
78368;SDS011;71113;43.092;-89.268;2023-07-31T13:56:45;1.27;;;0.38;;
78368;SDS011;71113;43.092;-89.268;2023-07-31T13:59:11;1.23;;;0.80;;
78368;SDS011;71113;43.092;-89.268;2023-07-31T14:01:37;2.40;;;0.90;;
78368;SDS011;71113;43.092;-89.268;2023-07-31T14:04:03;1.50;;;0.60;;
78368;SDS011;71113;43.092;-89.268;2023-07-31T14:06:29;1.90;;;0.70;;
78368;SDS011;71113;43.092;-89.268;2023-07-31T14:08:55;1.33;;;0.75;;
78368;SDS011;71113;43.092;-89.268;2023-07-31T14:11:24;0.60;;;0.47;;
78368;SDS011;71113;43.092;-89.268;2023-07-31T14:13:50;6.85;;;0.93;;
78368;SDS011;71113;43.092;-89.268;2023-07-31T14:16:16;1.83;;;0.70;;
78368;SDS011;71113;43.092;-89.268;2023-07-31T14:18:43;1.23;;;0.77;;
78368;SDS011;71113;43.092;-89.268;2023-07-31T14:21:10;0.85;;;0.45;;
78368;SDS011;71113;43.092;-89.268;2023-07-31T14:23:37;3.63;;;0.95;;
78368;SDS011;71113;43.092;-89.268;2023-07-31T14:26:02;1.02;;;0.68;;
78368;SDS011;71113;43.092;-89.268;2023-07-31T14:28:48;0.68;;;0.60;;
78368;SDS011;71113;43.092;-89.268;2023-07-31T14:31:35;1.27;;;0.77;;
78368;SDS011;71113;43.092;-89.268;2023-07-31T14:34:01;1.30;;;0.70;;
78368;SDS011;71113;43.092;-89.268;2023-07-31T14:36:27;1.13;;;0.80;;
78368;SDS011;71113;43.092;-89.268;2023-07-31T14:38:53;1.52;;;0.75;;
78368;SDS011;71113;43.092;-89.268;2023-07-31T14:41:19;3.78;;;0.60;;
78368;SDS011;71113;43.092;-89.268;2023-07-31T14:43:45;3.28;;;1.30;;
78368;SDS011;71113;43.092;-89.268;2023-07-31T14:46:10;1.65;;;0.80;;
78368;SDS011;71113;43.092;-89.268;2023-07-31T14:48:36;0.52;;;0.52;;
78368;SDS011;71113;43.092;-89.268;2023-07-31T14:51:02;1.55;;;0.93;;
78368;SDS011;71113;43.092;-89.268;2023-07-31T14:53:28;0.85;;;0.70;;